sensor_id;sensor_type;location;lat;lon;timestamp;pressure;altitude;pressure_sealevel;temperature;humidity
86383;BME280;77029;47.696;10.348;2024-03-25T00:01:48;92846.84;;;2.01;76.68
86383;BME280;77029;47.696;10.348;2024-03-25T00:04:14;92850.28;;;2.14;76.19
86383;BME280;77029;47.696;10.348;2024-03-25T00:06:40;92853.97;;;2.24;76.48
86383;BME280;77029;47.696;10.348;2024-03-25T00:09:06;92853.25;;;2.11;76.40
86383;BME280;77029;47.696;10.348;2024-03-25T00:11:33;92848.19;;;2.20;76.41
86383;BME280;77029;47.696;10.348;2024-03-25T00:13:59;92846.75;;;2.06;76.83
86383;BME280;77029;47.696;10.348;2024-03-25T00:16:25;92848.81;;;2.13;76.51
86383;BME280;77029;47.696;10.348;2024-03-25T00:18:51;92845.31;;;2.18;76.09
86383;BME280;77029;47.696;10.348;2024-03-25T00:21:17;92848.00;;;2.18;75.99
86383;BME280;77029;47.696;10.348;2024-03-25T00:23:43;92844.69;;;2.26;75.98
86383;BME280;77029;47.696;10.348;2024-03-25T00:26:09;92842.53;;;2.24;76.66
86383;BME280;77029;47.696;10.348;2024-03-25T00:28:35;92842.09;;;2.20;76.24
86383;BME280;77029;47.696;10.348;2024-03-25T00:31:01;92835.81;;;2.04;76.88
86383;BME280;77029;47.696;10.348;2024-03-25T00:33:27;92834.34;;;2.30;76.45
86383;BME280;77029;47.696;10.348;2024-03-25T00:35:53;92842.09;;;2.20;75.73
86383;BME280;77029;47.696;10.348;2024-03-25T00:38:19;92830.13;;;2.21;75.81
86383;BME280;77029;47.696;10.348;2024-03-25T00:40:48;92831.25;;;2.12;76.65
86383;BME280;77029;47.696;10.348;2024-03-25T00:43:14;92826.50;;;2.05;76.77
86383;BME280;77029;47.696;10.348;2024-03-25T00:45:40;92825.78;;;2.05;76.62
86383;BME280;77029;47.696;10.348;2024-03-25T00:48:07;92824.13;;;2.15;76.52
86383;BME280;77029;47.696;10.348;2024-03-25T00:50:33;92823.63;;;2.30;76.07
86383;BME280;77029;47.696;10.348;2024-03-25T00:52:59;92827.13;;;2.24;76.28
86383;BME280;77029;47.696;10.348;2024-03-25T00:55:25;92822.16;;;2.29;76.10
86383;BME280;77029;47.696;10.348;2024-03-25T00:57:51;92828.06;;;2.27;75.62
86383;BME280;77029;47.696;10.348;2024-03-25T01:00:18;92832.06;;;2.47;75.68
86383;BME280;77029;47.696;10.348;2024-03-25T01:02:44;92832.78;;;2.47;75.03
86383;BME280;77029;47.696;10.348;2024-03-25T01:05:10;92834.13;;;2.54;74.99
86383;BME280;77029;47.696;10.348;2024-03-25T01:07:36;92828.03;;;2.53;74.79
86383;BME280;77029;47.696;10.348;2024-03-25T01:10:02;92831.44;;;2.54;74.68
86383;BME280;77029;47.696;10.348;2024-03-25T01:12:28;92824.84;;;2.42;75.98
86383;BME280;77029;47.696;10.348;2024-03-25T01:14:54;92832.06;;;2.47;75.25
86383;BME280;77029;47.696;10.348;2024-03-25T01:17:20;92822.97;;;2.50;75.64
86383;BME280;77029;47.696;10.348;2024-03-25T01:19:46;92815.72;;;2.58;74.45
86383;BME280;77029;47.696;10.348;2024-03-25T01:22:12;92819.66;;;2.57;74.66
86383;BME280;77029;47.696;10.348;2024-03-25T01:24:38;92814.28;;;2.57;75.00
86383;BME280;77029;47.696;10.348;2024-03-25T01:27:04;92815.72;;;2.58;74.87
86383;BME280;77029;47.696;10.348;2024-03-25T01:29:30;92804.78;;;2.43;74.77
86383;BME280;77029;47.696;10.348;2024-03-25T01:31:56;92802.84;;;2.43;75.20
86383;BME280;77029;47.696;10.348;2024-03-25T01:34:27;92801.91;;;2.41;75.23
86383;BME280;77029;47.696;10.348;2024-03-25T01:36:53;92789.31;;;2.22;75.85
86383;BME280;77029;47.696;10.348;2024-03-25T01:39:19;92794.09;;;2.16;75.44
86383;BME280;77029;47.696;10.348;2024-03-25T01:41:45;92785.91;;;2.22;75.58
86383;BME280;77029;47.696;10.348;2024-03-25T01:44:11;92789.75;;;2.13;76.25
86383;BME280;77029;47.696;10.348;2024-03-25T01:46:38;92782.53;;;2.08;75.76
86383;BME280;77029;47.696;10.348;2024-03-25T01:49:04;92776.53;;;2.15;76.16
86383;BME280;77029;47.696;10.348;2024-03-25T01:51:30;92773.31;;;2.17;76.10
86383;BME280;77029;47.696;10.348;2024-03-25T01:53:58;92775.69;;;2.20;76.17
86383;BME280;77029;47.696;10.348;2024-03-25T01:56:25;92772.81;;;2.05;76.11
86383;BME280;77029;47.696;10.348;2024-03-25T01:58:51;92779.41;;;2.17;75.77
86383;BME280;77029;47.696;10.348;2024-03-25T02:01:18;92769.72;;;2.14;76.03
86383;BME280;77029;47.696;10.348;2024-03-25T02:03:45;92772.19;;;2.12;75.38
86383;BME280;77029;47.696;10.348;2024-03-25T02:06:15;92767.66;;;1.94;75.69
86383;BME280;77029;47.696;10.348;2024-03-25T02:08:46;92769.22;;;2.03;75.31
86383;BME280;77029;47.696;10.348;2024-03-25T02:11:14;92763.34;;;1.91;75.74
86383;BME280;77029;47.696;10.348;2024-03-25T02:13:41;92772.63;;;2.03;75.79
86383;BME280;77029;47.696;10.348;2024-03-25T02:16:07;92771.47;;;1.99;76.01
86383;BME280;77029;47.696;10.348;2024-03-25T02:18:33;92774.78;;;2.05;75.54
86383;BME280;77029;47.696;10.348;2024-03-25T02:21:00;92784.38;;;2.13;75.12
86383;BME280;77029;47.696;10.348;2024-03-25T02:23:26;92771.81;;;1.82;75.94
86383;BME280;77029;47.696;10.348;2024-03-25T02:25:53;92781.41;;;2.04;75.74
86383;BME280;77029;47.696;10.348;2024-03-25T02:28:20;92783.56;;;2.05;75.19
86383;BME280;77029;47.696;10.348;2024-03-25T02:30:46;92771.06;;;2.08;75.90
86383;BME280;77029;47.696;10.348;2024-03-25T02:33:13;92772.41;;;2.14;75.41
86383;BME280;77029;47.696;10.348;2024-03-25T02:35:41;92775.59;;;2.26;75.46
86383;BME280;77029;47.696;10.348;2024-03-25T02:38:08;92769.19;;;2.29;74.88
86383;BME280;77029;47.696;10.348;2024-03-25T02:40:37;92770.69;;;2.51;74.88
86383;BME280;77029;47.696;10.348;2024-03-25T02:43:03;92767.16;;;2.56;74.88
86383;BME280;77029;47.696;10.348;2024-03-25T02:45:30;92772.72;;;2.58;75.08
86383;BME280;77029;47.696;10.348;2024-03-25T02:47:56;92768.78;;;2.59;75.12
86383;BME280;77029;47.696;10.348;2024-03-25T02:50:22;92772.28;;;2.80;74.12
86383;BME280;77029;47.696;10.348;2024-03-25T02:52:48;92770.75;;;2.72;74.14
86383;BME280;77029;47.696;10.348;2024-03-25T02:55:14;92770.63;;;2.77;74.69
86383;BME280;77029;47.696;10.348;2024-03-25T02:57:40;92772.28;;;2.80;73.99
86383;BME280;77029;47.696;10.348;2024-03-25T03:00:06;92766.56;;;2.84;73.40
86383;BME280;77029;47.696;10.348;2024-03-25T03:02:34;92770.59;;;2.91;73.77
86383;BME280;77029;47.696;10.348;2024-03-25T03:05:00;92764.28;;;2.88;73.39
86383;BME280;77029;47.696;10.348;2024-03-25T03:07:28;92767.94;;;2.77;73.90
86383;BME280;77029;47.696;10.348;2024-03-25T03:09:54;92775.41;;;2.71;73.81
86383;BME280;77029;47.696;10.348;2024-03-25T03:12:20;92772.28;;;2.80;74.27
86383;BME280;77029;47.696;10.348;2024-03-25T03:14:46;92776.22;;;2.79;74.15
86383;BME280;77029;47.696;10.348;2024-03-25T03:17:12;92775.56;;;2.86;73.62
86383;BME280;77029;47.696;10.348;2024-03-25T03:19:38;92767.63;;;2.81;73.95
86383;BME280;77029;47.696;10.348;2024-03-25T03:22:04;92763.22;;;2.70;73.53
86383;BME280;77029;47.696;10.348;2024-03-25T03:24:30;92763.75;;;2.90;73.72
86383;BME280;77029;47.696;10.348;2024-03-25T03:26:56;92765.59;;;2.95;73.60
86383;BME280;77029;47.696;10.348;2024-03-25T03:29:22;92753.25;;;2.78;74.03
86383;BME280;77029;47.696;10.348;2024-03-25T03:31:48;92763.81;;;2.76;73.91
86383;BME280;77029;47.696;10.348;2024-03-25T03:34:15;92764.53;;;2.77;74.13
86383;BME280;77029;47.696;10.348;2024-03-25T03:36:41;92760.88;;;2.87;74.19
86383;BME280;77029;47.696;10.348;2024-03-25T03:39:07;92765.00;;;2.88;74.37
86383;BME280;77029;47.696;10.348;2024-03-25T03:41:36;92758.63;;;2.78;74.61
86383;BME280;77029;47.696;10.348;2024-03-25T03:44:02;92760.41;;;2.76;74.37
86383;BME280;77029;47.696;10.348;2024-03-25T03:46:28;92770.63;;;2.77;74.51
86383;BME280;77029;47.696;10.348;2024-03-25T03:48:54;92761.91;;;2.84;74.56
86383;BME280;77029;47.696;10.348;2024-03-25T03:51:20;92766.50;;;2.76;74.54
86383;BME280;77029;47.696;10.348;2024-03-25T03:53:46;92775.16;;;2.82;74.59
86383;BME280;77029;47.696;10.348;2024-03-25T03:56:12;92763.88;;;2.84;74.09
86383;BME280;77029;47.696;10.348;2024-03-25T03:58:38;92774.13;;;2.85;74.32
86383;BME280;77029;47.696;10.348;2024-03-25T04:01:04;92770.59;;;2.91;73.30
86383;BME280;77029;47.696;10.348;2024-03-25T04:03:39;92770.53;;;3.04;73.97
86383;BME280;77029;47.696;10.348;2024-03-25T04:06:10;92764.28;;;3.09;73.22
86383;BME280;77029;47.696;10.348;2024-03-25T04:08:37;92766.38;;;3.03;72.97
86383;BME280;77029;47.696;10.348;2024-03-25T04:11:03;92759.25;;;3.05;73.46
86383;BME280;77029;47.696;10.348;2024-03-25T04:13:35;92761.28;;;2.92;73.79
86383;BME280;77029;47.696;10.348;2024-03-25T04:16:03;92764.00;;;2.78;73.79
86383;BME280;77029;47.696;10.348;2024-03-25T04:18:31;92761.03;;;2.69;73.87
86383;BME280;77029;47.696;10.348;2024-03-25T04:20:57;92761.91;;;2.50;74.24
86383;BME280;77029;47.696;10.348;2024-03-25T04:23:24;92760.97;;;2.61;74.24
86383;BME280;77029;47.696;10.348;2024-03-25T04:25:51;92760.75;;;2.59;74.92
86383;BME280;77029;47.696;10.348;2024-03-25T04:28:17;92765.09;;;2.49;74.98
86383;BME280;77029;47.696;10.348;2024-03-25T04:30:43;92759.34;;;2.45;75.34
86383;BME280;77029;47.696;10.348;2024-03-25T04:33:09;92761.41;;;2.39;74.83
86383;BME280;77029;47.696;10.348;2024-03-25T04:35:35;92756.03;;;2.39;75.23
86383;BME280;77029;47.696;10.348;2024-03-25T04:38:01;92756.34;;;2.35;74.92
86383;BME280;77029;47.696;10.348;2024-03-25T04:40:28;92766.59;;;2.23;75.38
86383;BME280;77029;47.696;10.348;2024-03-25T04:42:55;92761.56;;;2.20;75.86
86383;BME280;77029;47.696;10.348;2024-03-25T04:45:21;92769.50;;;2.12;76.32
86383;BME280;77029;47.696;10.348;2024-03-25T04:47:47;92758.47;;;2.16;75.46
86383;BME280;77029;47.696;10.348;2024-03-25T04:50:13;92758.16;;;2.19;74.85
86383;BME280;77029;47.696;10.348;2024-03-25T04:52:39;92765.38;;;2.24;75.23
86383;BME280;77029;47.696;10.348;2024-03-25T04:55:05;92757.94;;;2.17;74.78
86383;BME280;77029;47.696;10.348;2024-03-25T04:57:31;92756.28;;;2.28;74.67
86383;BME280;77029;47.696;10.348;2024-03-25T04:59:57;92759.25;;;2.37;74.29
86383;BME280;77029;47.696;10.348;2024-03-25T05:02:24;92766.78;;;2.39;74.32
86383;BME280;77029;47.696;10.348;2024-03-25T05:04:50;92760.38;;;2.42;73.49
86383;BME280;77029;47.696;10.348;2024-03-25T05:07:16;92756.28;;;2.28;73.84
86383;BME280;77029;47.696;10.348;2024-03-25T05:09:42;92764.13;;;2.26;73.77
86383;BME280;77029;47.696;10.348;2024-03-25T05:12:09;92765.25;;;2.30;74.12
86383;BME280;77029;47.696;10.348;2024-03-25T05:14:35;92758.63;;;2.31;73.49
86383;BME280;77029;47.696;10.348;2024-03-25T05:17:01;92770.00;;;2.37;73.86
86383;BME280;77029;47.696;10.348;2024-03-25T05:19:29;92771.75;;;2.35;73.14
86383;BME280;77029;47.696;10.348;2024-03-25T05:21:55;92774.84;;;2.39;74.04
86383;BME280;77029;47.696;10.348;2024-03-25T05:24:21;92771.19;;;2.49;73.50
86383;BME280;77029;47.696;10.348;2024-03-25T05:26:47;92772.53;;;2.56;73.48
86383;BME280;77029;47.696;10.348;2024-03-25T05:29:13;92768.78;;;2.59;72.21
86383;BME280;77029;47.696;10.348;2024-03-25T05:31:55;92773.56;;;2.66;72.84
86383;BME280;77029;47.696;10.348;2024-03-25T05:34:22;92770.63;;;2.77;71.54
86383;BME280;77029;47.696;10.348;2024-03-25T05:36:48;92776.44;;;2.68;71.95
86383;BME280;77029;47.696;10.348;2024-03-25T05:39:14;92781.78;;;2.81;71.69
86383;BME280;77029;47.696;10.348;2024-03-25T05:41:40;92777.78;;;2.96;71.02
86383;BME280;77029;47.696;10.348;2024-03-25T05:44:06;92773.47;;;2.93;71.95
86383;BME280;77029;47.696;10.348;2024-03-25T05:46:32;92773.47;;;2.93;72.16
86383;BME280;77029;47.696;10.348;2024-03-25T05:49:01;92769.59;;;2.80;71.18
86383;BME280;77029;47.696;10.348;2024-03-25T05:51:27;92771.44;;;2.85;71.71
86383;BME280;77029;47.696;10.348;2024-03-25T05:53:54;92771.78;;;3.03;72.10
86383;BME280;77029;47.696;10.348;2024-03-25T05:56:20;92772.81;;;3.20;70.79
86383;BME280;77029;47.696;10.348;2024-03-25T05:58:46;92768.44;;;3.10;70.23
86383;BME280;77029;47.696;10.348;2024-03-25T06:01:13;92768.34;;;3.23;70.64
86383;BME280;77029;47.696;10.348;2024-03-25T06:03:39;92761.53;;;3.64;70.41
86383;BME280;77029;47.696;10.348;2024-03-25T06:06:05;92764.94;;;3.93;69.62
86383;BME280;77029;47.696;10.348;2024-03-25T06:08:31;92764.69;;;4.11;69.86
86383;BME280;77029;47.696;10.348;2024-03-25T06:13:47;92756.78;;;4.13;67.23
86383;BME280;77029;47.696;10.348;2024-03-25T06:16:14;92762.50;;;4.10;68.55
86383;BME280;77029;47.696;10.348;2024-03-25T06:18:40;92757.16;;;4.18;68.62
86383;BME280;77029;47.696;10.348;2024-03-25T06:21:06;92757.16;;;4.18;68.15
86383;BME280;77029;47.696;10.348;2024-03-25T06:23:32;92757.66;;;4.08;68.48
86383;BME280;77029;47.696;10.348;2024-03-25T06:25:58;92758.06;;;4.20;67.76
86383;BME280;77029;47.696;10.348;2024-03-25T06:28:26;92757.50;;;4.14;68.81
86383;BME280;77029;47.696;10.348;2024-03-25T06:30:52;92757.63;;;4.37;68.17
86383;BME280;77029;47.696;10.348;2024-03-25T06:33:36;92750.34;;;4.16;66.71
86383;BME280;77029;47.696;10.348;2024-03-25T06:36:22;92742.97;;;4.53;66.21
86383;BME280;77029;47.696;10.348;2024-03-25T06:38:48;92747.97;;;4.49;66.19
86383;BME280;77029;47.696;10.348;2024-03-25T06:41:14;92744.53;;;5.15;65.47
86383;BME280;77029;47.696;10.348;2024-03-25T06:43:40;92747.59;;;5.80;63.03
86383;BME280;77029;47.696;10.348;2024-03-25T06:46:07;92740.81;;;6.82;60.80
86383;BME280;77029;47.696;10.348;2024-03-25T06:48:33;92753.66;;;7.64;57.93
86383;BME280;77029;47.696;10.348;2024-03-25T06:51:04;92751.84;;;8.43;54.87
86383;BME280;77029;47.696;10.348;2024-03-25T06:53:31;92748.78;;;8.91;53.88
86383;BME280;77029;47.696;10.348;2024-03-25T06:56:00;92745.03;;;9.13;52.46
86383;BME280;77029;47.696;10.348;2024-03-25T06:58:30;92743.59;;;10.41;48.43
86383;BME280;77029;47.696;10.348;2024-03-25T07:01:03;92746.94;;;12.97;44.21
86383;BME280;77029;47.696;10.348;2024-03-25T07:03:29;92739.69;;;14.52;38.29
86383;BME280;77029;47.696;10.348;2024-03-25T07:05:55;92741.84;;;15.94;38.42
86383;BME280;77029;47.696;10.348;2024-03-25T07:08:22;92734.91;;;16.48;34.82
86383;BME280;77029;47.696;10.348;2024-03-25T07:10:48;92729.97;;;17.78;32.69
86383;BME280;77029;47.696;10.348;2024-03-25T07:13:14;92727.47;;;18.15;32.39
86383;BME280;77029;47.696;10.348;2024-03-25T07:15:42;92733.34;;;18.91;29.98
86383;BME280;77029;47.696;10.348;2024-03-25T07:18:09;92721.38;;;20.52;28.61
86383;BME280;77029;47.696;10.348;2024-03-25T07:20:36;92724.47;;;20.62;27.06
86383;BME280;77029;47.696;10.348;2024-03-25T07:23:03;92733.50;;;19.66;29.16
86383;BME280;77029;47.696;10.348;2024-03-25T07:25:29;92727.81;;;19.62;30.66
86383;BME280;77029;47.696;10.348;2024-03-25T07:27:56;92729.09;;;19.23;28.86
86383;BME280;77029;47.696;10.348;2024-03-25T07:30:22;92724.56;;;20.25;27.41
86383;BME280;77029;47.696;10.348;2024-03-25T07:32:50;92725.94;;;21.07;27.39
86383;BME280;77029;47.696;10.348;2024-03-25T07:35:16;92717.84;;;21.59;25.11
86383;BME280;77029;47.696;10.348;2024-03-25T07:37:43;92717.19;;;21.37;26.51
86383;BME280;77029;47.696;10.348;2024-03-25T07:40:10;92713.81;;;20.75;29.23
86383;BME280;77029;47.696;10.348;2024-03-25T07:42:38;92706.22;;;22.12;25.64
86383;BME280;77029;47.696;10.348;2024-03-25T07:45:05;92708.25;;;22.62;24.01
86383;BME280;77029;47.696;10.348;2024-03-25T07:47:32;92708.25;;;22.62;24.72
86383;BME280;77029;47.696;10.348;2024-03-25T07:49:59;92710.53;;;22.17;24.57
86383;BME280;77029;47.696;10.348;2024-03-25T07:52:25;92722.25;;;22.42;24.86
86383;BME280;77029;47.696;10.348;2024-03-25T07:54:52;92712.31;;;22.33;24.08
86383;BME280;77029;47.696;10.348;2024-03-25T07:57:18;92722.00;;;19.54;27.80
86383;BME280;77029;47.696;10.348;2024-03-25T07:59:45;92711.75;;;19.38;27.01
86383;BME280;77029;47.696;10.348;2024-03-25T08:02:11;92710.94;;;20.31;27.08
86383;BME280;77029;47.696;10.348;2024-03-25T08:04:37;92712.91;;;20.68;26.42
86383;BME280;77029;47.696;10.348;2024-03-25T08:07:04;92710.25;;;20.11;27.17
86383;BME280;77029;47.696;10.348;2024-03-25T08:09:30;92705.66;;;19.42;27.05
86383;BME280;77029;47.696;10.348;2024-03-25T08:11:56;92708.13;;;20.29;25.97
86383;BME280;77029;47.696;10.348;2024-03-25T08:14:22;92704.63;;;20.48;27.37
86383;BME280;77029;47.696;10.348;2024-03-25T08:16:48;92695.84;;;21.65;25.64
86383;BME280;77029;47.696;10.348;2024-03-25T08:19:15;92697.91;;;19.94;27.32
86383;BME280;77029;47.696;10.348;2024-03-25T08:21:41;92697.50;;;21.50;25.85
86383;BME280;77029;47.696;10.348;2024-03-25T08:24:07;92697.25;;;21.66;24.91
86383;BME280;77029;47.696;10.348;2024-03-25T08:26:33;92691.03;;;21.89;24.25
86383;BME280;77029;47.696;10.348;2024-03-25T08:28:59;92691.75;;;21.20;25.66
86383;BME280;77029;47.696;10.348;2024-03-25T08:31:25;92688.44;;;21.48;25.10
86383;BME280;77029;47.696;10.348;2024-03-25T08:33:51;92685.59;;;22.45;24.22
86383;BME280;77029;47.696;10.348;2024-03-25T08:36:17;92689.53;;;22.36;24.58
86383;BME280;77029;47.696;10.348;2024-03-25T08:38:44;92686.34;;;22.74;22.08
86383;BME280;77029;47.696;10.348;2024-03-25T08:41:10;92685.63;;;23.61;23.28
86383;BME280;77029;47.696;10.348;2024-03-25T08:43:36;92680.91;;;23.38;23.70
86383;BME280;77029;47.696;10.348;2024-03-25T08:46:02;92678.75;;;23.64;22.82
86383;BME280;77029;47.696;10.348;2024-03-25T08:48:29;92665.31;;;22.39;24.27
86383;BME280;77029;47.696;10.348;2024-03-25T08:50:55;92670.91;;;22.13;25.41
86383;BME280;77029;47.696;10.348;2024-03-25T08:53:22;92661.63;;;24.12;22.24
86383;BME280;77029;47.696;10.348;2024-03-25T08:55:48;92662.06;;;23.02;23.36
86383;BME280;77029;47.696;10.348;2024-03-25T08:58:15;92660.03;;;21.23;26.97
86383;BME280;77029;47.696;10.348;2024-03-25T09:00:42;92651.50;;;23.27;22.70
86383;BME280;77029;47.696;10.348;2024-03-25T09:03:09;92648.19;;;23.34;20.64
86383;BME280;77029;47.696;10.348;2024-03-25T09:05:37;92641.69;;;24.62;20.51
86383;BME280;77029;47.696;10.348;2024-03-25T09:08:08;92638.66;;;23.11;22.18
86383;BME280;77029;47.696;10.348;2024-03-25T09:10:37;92627.16;;;23.55;22.64
86383;BME280;77029;47.696;10.348;2024-03-25T09:13:22;92631.72;;;21.03;26.02
86383;BME280;77029;47.696;10.348;2024-03-25T09:15:49;92629.22;;;22.65;22.70
86383;BME280;77029;47.696;10.348;2024-03-25T09:18:16;92628.38;;;22.04;24.17
86383;BME280;77029;47.696;10.348;2024-03-25T09:20:43;92616.06;;;21.12;25.08
86383;BME280;77029;47.696;10.348;2024-03-25T09:23:09;92632.03;;;22.95;23.16
86383;BME280;77029;47.696;10.348;2024-03-25T09:25:36;92626.22;;;22.82;24.23
86383;BME280;77029;47.696;10.348;2024-03-25T09:28:02;92623.25;;;22.48;22.92
86383;BME280;77029;47.696;10.348;2024-03-25T09:30:28;92627.63;;;21.52;22.91
86383;BME280;77029;47.696;10.348;2024-03-25T09:32:54;92629.84;;;21.34;23.62
86383;BME280;77029;47.696;10.348;2024-03-25T09:35:21;92624.13;;;20.18;25.27
86383;BME280;77029;47.696;10.348;2024-03-25T09:37:47;92616.63;;;19.41;26.15
86383;BME280;77029;47.696;10.348;2024-03-25T09:40:13;92607.72;;;20.02;24.76
86383;BME280;77029;47.696;10.348;2024-03-25T09:42:49;92618.84;;;19.07;28.59
86383;BME280;77029;47.696;10.348;2024-03-25T09:45:16;92611.28;;;19.85;28.36
86383;BME280;77029;47.696;10.348;2024-03-25T09:47:46;92606.06;;;18.98;27.29
86383;BME280;77029;47.696;10.348;2024-03-25T09:50:15;92592.03;;;18.21;27.29
86383;BME280;77029;47.696;10.348;2024-03-25T09:52:51;92584.88;;;18.32;27.78
86383;BME280;77029;47.696;10.348;2024-03-25T09:55:17;92586.22;;;17.97;29.19
86383;BME280;77029;47.696;10.348;2024-03-25T09:57:44;92594.28;;;16.97;30.84
86383;BME280;77029;47.696;10.348;2024-03-25T10:00:11;92578.03;;;16.71;31.29
86383;BME280;77029;47.696;10.348;2024-03-25T10:02:41;92589.19;;;16.46;31.74
86383;BME280;77029;47.696;10.348;2024-03-25T10:05:08;92584.72;;;16.09;31.13
86383;BME280;77029;47.696;10.348;2024-03-25T10:07:34;92573.50;;;16.19;33.50
86383;BME280;77029;47.696;10.348;2024-03-25T10:10:05;92571.47;;;16.49;31.66
86383;BME280;77029;47.696;10.348;2024-03-25T10:12:31;92568.88;;;15.94;32.30
86383;BME280;77029;47.696;10.348;2024-03-25T10:22:41;92559.28;;;15.66;32.89
86383;BME280;77029;47.696;10.348;2024-03-25T10:25:18;92556.72;;;15.28;30.43
86383;BME280;77029;47.696;10.348;2024-03-25T10:27:53;92548.78;;;14.93;32.36
86383;BME280;77029;47.696;10.348;2024-03-25T10:30:19;92541.78;;;14.90;30.48
86383;BME280;77029;47.696;10.348;2024-03-25T10:32:45;92524.03;;;14.27;32.42
86383;BME280;77029;47.696;10.348;2024-03-25T10:35:12;92526.88;;;14.68;32.08
86383;BME280;77029;47.696;10.348;2024-03-25T10:37:39;92517.94;;;14.03;30.04
86383;BME280;77029;47.696;10.348;2024-03-25T10:40:07;92513.09;;;14.41;30.45
86383;BME280;77029;47.696;10.348;2024-03-25T10:42:34;92512.75;;;15.13;28.31
86383;BME280;77029;47.696;10.348;2024-03-25T10:45:01;92522.84;;;14.69;31.61
86383;BME280;77029;47.696;10.348;2024-03-25T10:47:29;92525.38;;;13.89;32.82
86383;BME280;77029;47.696;10.348;2024-03-25T10:49:57;92521.13;;;14.11;32.60
86383;BME280;77029;47.696;10.348;2024-03-25T10:52:26;92522.94;;;13.21;33.64
86383;BME280;77029;47.696;10.348;2024-03-25T10:54:52;92510.09;;;13.12;34.61
86383;BME280;77029;47.696;10.348;2024-03-25T10:57:24;92511.47;;;13.48;32.53
86383;BME280;77029;47.696;10.348;2024-03-25T10:59:51;92504.63;;;13.12;33.84
86383;BME280;77029;47.696;10.348;2024-03-25T11:02:18;92506.88;;;13.27;36.68
86383;BME280;77029;47.696;10.348;2024-03-25T11:04:45;92490.25;;;13.60;32.80
86383;BME280;77029;47.696;10.348;2024-03-25T11:07:14;92486.31;;;13.26;31.87
86383;BME280;77029;47.696;10.348;2024-03-25T11:09:41;92482.28;;;12.92;30.55
86383;BME280;77029;47.696;10.348;2024-03-25T11:12:11;92473.03;;;13.20;31.20
86383;BME280;77029;47.696;10.348;2024-03-25T11:14:38;92466.03;;;13.54;29.56
86383;BME280;77029;47.696;10.348;2024-03-25T11:17:15;92471.81;;;13.12;29.87
86383;BME280;77029;47.696;10.348;2024-03-25T11:19:42;92464.84;;;12.38;28.46
86383;BME280;77029;47.696;10.348;2024-03-25T11:22:10;92453.78;;;12.83;29.65
86383;BME280;77029;47.696;10.348;2024-03-25T11:24:37;92448.13;;;12.56;25.35
86383;BME280;77029;47.696;10.348;2024-03-25T11:27:07;92442.66;;;12.56;27.50
86383;BME280;77029;47.696;10.348;2024-03-25T11:29:34;92440.94;;;12.97;26.25
86383;BME280;77029;47.696;10.348;2024-03-25T11:32:05;92441.69;;;12.63;29.95
86383;BME280;77029;47.696;10.348;2024-03-25T11:34:32;92439.97;;;13.28;30.97
86383;BME280;77029;47.696;10.348;2024-03-25T11:36:58;92429.59;;;12.66;29.79
86383;BME280;77029;47.696;10.348;2024-03-25T11:39:24;92423.91;;;12.38;27.57
86383;BME280;77029;47.696;10.348;2024-03-25T11:41:54;92418.16;;;12.11;29.35
86383;BME280;77029;47.696;10.348;2024-03-25T11:44:24;92410.81;;;12.13;31.53
86383;BME280;77029;47.696;10.348;2024-03-25T11:46:51;92410.59;;;12.44;28.87
86383;BME280;77029;47.696;10.348;2024-03-25T11:49:21;92407.16;;;12.32;29.95
86383;BME280;77029;47.696;10.348;2024-03-25T11:51:47;92396.25;;;12.32;30.82
86383;BME280;77029;47.696;10.348;2024-03-25T11:54:13;92400.53;;;11.67;31.26
86383;BME280;77029;47.696;10.348;2024-03-25T11:56:40;92399.03;;;11.43;31.79
86383;BME280;77029;47.696;10.348;2024-03-25T11:59:08;92398.22;;;11.52;32.28
86383;BME280;77029;47.696;10.348;2024-03-25T12:01:37;92394.81;;;10.97;33.67
86383;BME280;77029;47.696;10.348;2024-03-25T12:04:11;92381.94;;;11.31;34.07
86383;BME280;77029;47.696;10.348;2024-03-25T12:06:38;92372.38;;;12.09;32.74
86383;BME280;77029;47.696;10.348;2024-03-25T12:09:04;92374.97;;;11.39;31.38
86383;BME280;77029;47.696;10.348;2024-03-25T12:11:49;92358.13;;;11.88;32.54
86383;BME280;77029;47.696;10.348;2024-03-25T12:14:16;92360.63;;;11.84;32.21
86383;BME280;77029;47.696;10.348;2024-03-25T12:16:43;92359.91;;;11.05;31.61
86383;BME280;77029;47.696;10.348;2024-03-25T12:19:09;92346.66;;;11.44;34.58
86383;BME280;77029;47.696;10.348;2024-03-25T12:21:36;92336.47;;;11.45;33.73
86383;BME280;77029;47.696;10.348;2024-03-25T12:24:03;92338.19;;;11.73;33.81
86383;BME280;77029;47.696;10.348;2024-03-25T12:26:31;92340.22;;;10.74;33.88
86383;BME280;77029;47.696;10.348;2024-03-25T12:28:58;92334.16;;;11.74;35.65
86383;BME280;77029;47.696;10.348;2024-03-25T12:31:24;92330.88;;;11.88;32.16
86383;BME280;77029;47.696;10.348;2024-03-25T12:33:50;92312.78;;;11.59;29.83
86383;BME280;77029;47.696;10.348;2024-03-25T12:36:17;92307.34;;;11.14;32.91
86383;BME280;77029;47.696;10.348;2024-03-25T12:38:43;92301.56;;;12.00;31.86
86383;BME280;77029;47.696;10.348;2024-03-25T12:41:10;92293.03;;;12.05;34.00
86383;BME280;77029;47.696;10.348;2024-03-25T12:43:43;92298.38;;;12.27;30.46
86383;BME280;77029;47.696;10.348;2024-03-25T12:46:10;92287.94;;;12.23;33.08
86383;BME280;77029;47.696;10.348;2024-03-25T12:48:37;92282.47;;;12.72;32.00
86383;BME280;77029;47.696;10.348;2024-03-25T12:51:05;92284.34;;;12.32;31.30
86383;BME280;77029;47.696;10.348;2024-03-25T12:53:34;92280.78;;;12.41;35.53
86383;BME280;77029;47.696;10.348;2024-03-25T12:56:00;92270.53;;;12.54;31.10
86383;BME280;77029;47.696;10.348;2024-03-25T12:58:26;92271.22;;;12.66;29.83
86383;BME280;77029;47.696;10.348;2024-03-25T13:00:54;92268.97;;;12.02;28.75
86383;BME280;77029;47.696;10.348;2024-03-25T13:03:22;92264.19;;;11.44;30.64
86383;BME280;77029;47.696;10.348;2024-03-25T13:05:48;92259.34;;;11.54;31.79